sensor_id;sensor_type;location;lat;lon;timestamp;temperature;humidity
20946;DHT22;10632;51.276;7.116;2022-12-07T00:01:43;3.60;99.90
20946;DHT22;10632;51.276;7.116;2022-12-07T00:04:12;3.60;99.90
20946;DHT22;10632;51.276;7.116;2022-12-07T00:06:40;3.60;99.90
20946;DHT22;10632;51.276;7.116;2022-12-07T00:09:10;3.60;99.90
20946;DHT22;10632;51.276;7.116;2022-12-07T00:11:37;3.60;99.90
20946;DHT22;10632;51.276;7.116;2022-12-07T00:14:10;3.60;99.90
20946;DHT22;10632;51.276;7.116;2022-12-07T00:16:37;3.60;99.90
20946;DHT22;10632;51.276;7.116;2022-12-07T00:19:05;3.50;99.90
20946;DHT22;10632;51.276;7.116;2022-12-07T00:21:34;3.60;99.90
20946;DHT22;10632;51.276;7.116;2022-12-07T00:24:02;3.60;99.90
20946;DHT22;10632;51.276;7.116;2022-12-07T00:26:31;3.50;99.90
20946;DHT22;10632;51.276;7.116;2022-12-07T00:29:01;3.60;99.90
20946;DHT22;10632;51.276;7.116;2022-12-07T00:31:30;3.60;99.90
20946;DHT22;10632;51.276;7.116;2022-12-07T00:33:59;3.60;99.90
20946;DHT22;10632;51.276;7.116;2022-12-07T00:36:27;3.60;99.90
20946;DHT22;10632;51.276;7.116;2022-12-07T00:38:54;3.60;99.90
20946;DHT22;10632;51.276;7.116;2022-12-07T00:41:23;3.60;99.90
20946;DHT22;10632;51.276;7.116;2022-12-07T00:43:51;3.60;99.90
20946;DHT22;10632;51.276;7.116;2022-12-07T00:46:19;3.50;99.90
20946;DHT22;10632;51.276;7.116;2022-12-07T00:48:47;3.60;99.90
20946;DHT22;10632;51.276;7.116;2022-12-07T00:51:17;3.60;99.90
20946;DHT22;10632;51.276;7.116;2022-12-07T00:53:46;3.60;99.90
20946;DHT22;10632;51.276;7.116;2022-12-07T00:56:13;3.60;99.90
20946;DHT22;10632;51.276;7.116;2022-12-07T00:58:41;3.60;99.90
20946;DHT22;10632;51.276;7.116;2022-12-07T01:01:09;3.60;99.90
20946;DHT22;10632;51.276;7.116;2022-12-07T01:03:37;3.60;99.90
20946;DHT22;10632;51.276;7.116;2022-12-07T01:06:04;3.60;99.90
20946;DHT22;10632;51.276;7.116;2022-12-07T01:08:32;3.60;99.90
20946;DHT22;10632;51.276;7.116;2022-12-07T01:11:02;3.60;99.90
20946;DHT22;10632;51.276;7.116;2022-12-07T01:13:30;3.60;99.90
20946;DHT22;10632;51.276;7.116;2022-12-07T01:15:58;3.60;99.90
20946;DHT22;10632;51.276;7.116;2022-12-07T01:18:26;3.60;99.90
20946;DHT22;10632;51.276;7.116;2022-12-07T01:21:01;3.60;99.90
20946;DHT22;10632;51.276;7.116;2022-12-07T01:23:28;3.60;99.90
20946;DHT22;10632;51.276;7.116;2022-12-07T01:25:56;3.60;99.90
20946;DHT22;10632;51.276;7.116;2022-12-07T01:28:25;3.60;99.90
20946;DHT22;10632;51.276;7.116;2022-12-07T01:30:59;3.60;99.90
20946;DHT22;10632;51.276;7.116;2022-12-07T01:33:27;3.60;99.90
20946;DHT22;10632;51.276;7.116;2022-12-07T01:35:59;3.60;99.90
20946;DHT22;10632;51.276;7.116;2022-12-07T01:38:26;3.60;99.90
20946;DHT22;10632;51.276;7.116;2022-12-07T01:40:54;3.60;99.90
20946;DHT22;10632;51.276;7.116;2022-12-07T01:43:25;3.60;99.90
20946;DHT22;10632;51.276;7.116;2022-12-07T01:45:53;3.60;99.90
20946;DHT22;10632;51.276;7.116;2022-12-07T01:48:22;3.60;99.90
20946;DHT22;10632;51.276;7.116;2022-12-07T01:50:51;3.60;99.90
20946;DHT22;10632;51.276;7.116;2022-12-07T01:53:21;3.60;99.90
20946;DHT22;10632;51.276;7.116;2022-12-07T01:55:52;3.60;99.90
20946;DHT22;10632;51.276;7.116;2022-12-07T01:58:20;3.60;99.90
20946;DHT22;10632;51.276;7.116;2022-12-07T02:00:49;3.60;99.90
20946;DHT22;10632;51.276;7.116;2022-12-07T02:03:19;3.60;99.90
20946;DHT22;10632;51.276;7.116;2022-12-07T02:05:49;3.60;99.90
20946;DHT22;10632;51.276;7.116;2022-12-07T02:08:16;3.60;99.90
20946;DHT22;10632;51.276;7.116;2022-12-07T02:10:44;3.60;99.90
20946;DHT22;10632;51.276;7.116;2022-12-07T02:13:12;3.60;99.90
20946;DHT22;10632;51.276;7.116;2022-12-07T02:16:04;3.60;99.90
20946;DHT22;10632;51.276;7.116;2022-12-07T02:18:43;3.60;99.90
20946;DHT22;10632;51.276;7.116;2022-12-07T02:21:14;3.60;99.90
20946;DHT22;10632;51.276;7.116;2022-12-07T02:24:08;3.60;99.90
20946;DHT22;10632;51.276;7.116;2022-12-07T02:27:09;3.60;99.90
20946;DHT22;10632;51.276;7.116;2022-12-07T02:29:42;3.60;99.90
20946;DHT22;10632;51.276;7.116;2022-12-07T02:32:15;3.60;99.90
20946;DHT22;10632;51.276;7.116;2022-12-07T02:34:48;3.60;99.90
20946;DHT22;10632;51.276;7.116;2022-12-07T02:37:26;3.60;99.90
20946;DHT22;10632;51.276;7.116;2022-12-07T02:39:58;3.70;99.90
20946;DHT22;10632;51.276;7.116;2022-12-07T02:42:30;3.60;99.90
20946;DHT22;10632;51.276;7.116;2022-12-07T02:45:02;3.60;99.90
20946;DHT22;10632;51.276;7.116;2022-12-07T02:47:29;3.60;99.90
20946;DHT22;10632;51.276;7.116;2022-12-07T02:49:58;3.60;99.90
20946;DHT22;10632;51.276;7.116;2022-12-07T02:52:25;3.60;99.90
20946;DHT22;10632;51.276;7.116;2022-12-07T02:54:52;3.60;99.90
20946;DHT22;10632;51.276;7.116;2022-12-07T02:57:32;3.60;99.90
20946;DHT22;10632;51.276;7.116;2022-12-07T03:00:07;3.60;99.90
20946;DHT22;10632;51.276;7.116;2022-12-07T03:02:41;3.60;99.90
20946;DHT22;10632;51.276;7.116;2022-12-07T03:05:22;3.50;99.90
20946;DHT22;10632;51.276;7.116;2022-12-07T03:07:54;3.60;99.90
20946;DHT22;10632;51.276;7.116;2022-12-07T03:10:28;3.50;99.90
20946;DHT22;10632;51.276;7.116;2022-12-07T03:13:02;3.50;99.90
20946;DHT22;10632;51.276;7.116;2022-12-07T03:15:38;3.50;99.90
20946;DHT22;10632;51.276;7.116;2022-12-07T03:18:07;3.50;99.90
20946;DHT22;10632;51.276;7.116;2022-12-07T03:20:36;3.50;99.90
20946;DHT22;10632;51.276;7.116;2022-12-07T03:23:04;3.50;99.90
20946;DHT22;10632;51.276;7.116;2022-12-07T03:25:34;3.50;99.90
20946;DHT22;10632;51.276;7.116;2022-12-07T03:28:04;3.50;99.90
20946;DHT22;10632;51.276;7.116;2022-12-07T03:30:35;3.50;99.90
20946;DHT22;10632;51.276;7.116;2022-12-07T03:33:07;3.50;99.90
20946;DHT22;10632;51.276;7.116;2022-12-07T03:35:39;3.50;99.90
20946;DHT22;10632;51.276;7.116;2022-12-07T03:38:14;3.50;99.90
20946;DHT22;10632;51.276;7.116;2022-12-07T03:40:47;3.50;99.90
20946;DHT22;10632;51.276;7.116;2022-12-07T03:43:16;3.40;99.90
20946;DHT22;10632;51.276;7.116;2022-12-07T03:45:58;3.40;99.90
20946;DHT22;10632;51.276;7.116;2022-12-07T03:48:32;3.40;99.90
20946;DHT22;10632;51.276;7.116;2022-12-07T03:51:06;3.40;99.90
20946;DHT22;10632;51.276;7.116;2022-12-07T03:53:38;3.40;99.90
20946;DHT22;10632;51.276;7.116;2022-12-07T03:56:07;3.40;99.90
20946;DHT22;10632;51.276;7.116;2022-12-07T03:58:35;3.40;99.90
20946;DHT22;10632;51.276;7.116;2022-12-07T04:01:03;3.30;99.90
20946;DHT22;10632;51.276;7.116;2022-12-07T04:03:33;3.40;99.90
20946;DHT22;10632;51.276;7.116;2022-12-07T04:06:00;3.40;99.90
20946;DHT22;10632;51.276;7.116;2022-12-07T04:08:27;3.30;99.90
20946;DHT22;10632;51.276;7.116;2022-12-07T04:10:54;3.40;99.90
20946;DHT22;10632;51.276;7.116;2022-12-07T04:13:21;3.40;99.90
20946;DHT22;10632;51.276;7.116;2022-12-07T04:15:48;3.30;99.90
20946;DHT22;10632;51.276;7.116;2022-12-07T04:18:16;3.40;99.90
20946;DHT22;10632;51.276;7.116;2022-12-07T04:20:43;3.30;99.90
20946;DHT22;10632;51.276;7.116;2022-12-07T04:23:10;3.30;99.90
20946;DHT22;10632;51.276;7.116;2022-12-07T04:25:37;3.30;99.90
20946;DHT22;10632;51.276;7.116;2022-12-07T04:28:04;3.30;99.90
20946;DHT22;10632;51.276;7.116;2022-12-07T04:30:31;3.30;99.90
20946;DHT22;10632;51.276;7.116;2022-12-07T04:32:57;3.20;99.90
20946;DHT22;10632;51.276;7.116;2022-12-07T04:35:26;3.30;99.90
20946;DHT22;10632;51.276;7.116;2022-12-07T04:37:52;3.30;99.90
20946;DHT22;10632;51.276;7.116;2022-12-07T04:40:19;3.20;99.90
20946;DHT22;10632;51.276;7.116;2022-12-07T04:42:46;3.30;99.90
20946;DHT22;10632;51.276;7.116;2022-12-07T04:45:13;3.30;99.90
20946;DHT22;10632;51.276;7.116;2022-12-07T04:47:40;3.30;99.90
20946;DHT22;10632;51.276;7.116;2022-12-07T04:50:09;3.20;99.90
20946;DHT22;10632;51.276;7.116;2022-12-07T04:52:37;3.20;99.90
20946;DHT22;10632;51.276;7.116;2022-12-07T04:55:04;3.20;99.90
20946;DHT22;10632;51.276;7.116;2022-12-07T04:57:31;3.10;99.90
20946;DHT22;10632;51.276;7.116;2022-12-07T04:59:58;3.20;99.90
20946;DHT22;10632;51.276;7.116;2022-12-07T05:02:25;3.20;99.90
20946;DHT22;10632;51.276;7.116;2022-12-07T05:04:52;3.20;99.90
20946;DHT22;10632;51.276;7.116;2022-12-07T05:07:19;3.20;99.90
20946;DHT22;10632;51.276;7.116;2022-12-07T05:09:47;3.20;99.90
20946;DHT22;10632;51.276;7.116;2022-12-07T05:12:14;3.20;99.90
20946;DHT22;10632;51.276;7.116;2022-12-07T05:14:41;3.20;99.90
20946;DHT22;10632;51.276;7.116;2022-12-07T05:17:07;3.20;99.90
20946;DHT22;10632;51.276;7.116;2022-12-07T05:19:34;3.20;99.90
20946;DHT22;10632;51.276;7.116;2022-12-07T05:22:01;3.20;99.90
20946;DHT22;10632;51.276;7.116;2022-12-07T05:24:28;3.20;99.90
20946;DHT22;10632;51.276;7.116;2022-12-07T05:26:56;3.20;99.90
20946;DHT22;10632;51.276;7.116;2022-12-07T05:29:23;3.10;99.90
20946;DHT22;10632;51.276;7.116;2022-12-07T05:31:50;3.20;99.90
20946;DHT22;10632;51.276;7.116;2022-12-07T05:34:17;3.10;99.90
20946;DHT22;10632;51.276;7.116;2022-12-07T05:36:44;3.10;99.90
20946;DHT22;10632;51.276;7.116;2022-12-07T05:39:11;3.10;99.90
20946;DHT22;10632;51.276;7.116;2022-12-07T05:41:37;3.10;99.90
20946;DHT22;10632;51.276;7.116;2022-12-07T05:44:23;3.10;99.90
20946;DHT22;10632;51.276;7.116;2022-12-07T05:46:50;3.10;99.90
20946;DHT22;10632;51.276;7.116;2022-12-07T05:49:17;3.10;99.90
20946;DHT22;10632;51.276;7.116;2022-12-07T05:51:44;3.10;99.90
20946;DHT22;10632;51.276;7.116;2022-12-07T05:54:11;3.00;99.90
20946;DHT22;10632;51.276;7.116;2022-12-07T05:56:38;3.00;99.90
20946;DHT22;10632;51.276;7.116;2022-12-07T05:59:04;3.00;99.90
20946;DHT22;10632;51.276;7.116;2022-12-07T06:01:51;3.00;99.90
20946;DHT22;10632;51.276;7.116;2022-12-07T06:04:19;3.00;99.90
20946;DHT22;10632;51.276;7.116;2022-12-07T06:06:46;3.00;99.90
20946;DHT22;10632;51.276;7.116;2022-12-07T06:09:14;3.00;99.90
20946;DHT22;10632;51.276;7.116;2022-12-07T06:11:41;3.10;99.90
20946;DHT22;10632;51.276;7.116;2022-12-07T06:14:26;3.00;99.90
20946;DHT22;10632;51.276;7.116;2022-12-07T06:16:54;3.00;99.90
20946;DHT22;10632;51.276;7.116;2022-12-07T06:19:21;3.00;99.90
20946;DHT22;10632;51.276;7.116;2022-12-07T06:21:48;3.00;99.90
20946;DHT22;10632;51.276;7.116;2022-12-07T06:24:16;2.90;99.90
20946;DHT22;10632;51.276;7.116;2022-12-07T06:26:44;2.90;99.90
20946;DHT22;10632;51.276;7.116;2022-12-07T06:29:12;3.00;99.90
20946;DHT22;10632;51.276;7.116;2022-12-07T06:31:39;3.00;99.90
20946;DHT22;10632;51.276;7.116;2022-12-07T06:34:10;2.90;99.90
20946;DHT22;10632;51.276;7.116;2022-12-07T06:36:37;2.90;99.90
20946;DHT22;10632;51.276;7.116;2022-12-07T06:39:05;2.90;99.90
20946;DHT22;10632;51.276;7.116;2022-12-07T06:41:33;3.00;99.90
20946;DHT22;10632;51.276;7.116;2022-12-07T06:44:00;2.90;99.90
20946;DHT22;10632;51.276;7.116;2022-12-07T06:46:26;2.90;99.90
20946;DHT22;10632;51.276;7.116;2022-12-07T06:48:53;2.90;99.90
20946;DHT22;10632;51.276;7.116;2022-12-07T06:51:22;2.90;99.90
20946;DHT22;10632;51.276;7.116;2022-12-07T06:53:49;3.00;99.90
20946;DHT22;10632;51.276;7.116;2022-12-07T06:56:16;3.00;99.90
20946;DHT22;10632;51.276;7.116;2022-12-07T06:58:42;3.00;99.90
20946;DHT22;10632;51.276;7.116;2022-12-07T07:01:10;2.90;99.90
20946;DHT22;10632;51.276;7.116;2022-12-07T07:03:38;2.90;99.90
20946;DHT22;10632;51.276;7.116;2022-12-07T07:06:06;2.90;99.90
20946;DHT22;10632;51.276;7.116;2022-12-07T07:08:39;2.90;99.90
20946;DHT22;10632;51.276;7.116;2022-12-07T07:11:07;2.90;99.90
20946;DHT22;10632;51.276;7.116;2022-12-07T07:13:34;2.90;99.90
20946;DHT22;10632;51.276;7.116;2022-12-07T07:16:01;2.90;99.90
20946;DHT22;10632;51.276;7.116;2022-12-07T07:18:28;2.90;99.90
20946;DHT22;10632;51.276;7.116;2022-12-07T07:20:56;2.90;99.90
20946;DHT22;10632;51.276;7.116;2022-12-07T07:23:23;2.90;99.90
20946;DHT22;10632;51.276;7.116;2022-12-07T07:25:51;2.80;99.90
20946;DHT22;10632;51.276;7.116;2022-12-07T07:28:18;2.90;99.90
20946;DHT22;10632;51.276;7.116;2022-12-07T07:30:45;2.90;99.90
20946;DHT22;10632;51.276;7.116;2022-12-07T07:33:14;2.90;99.90
20946;DHT22;10632;51.276;7.116;2022-12-07T07:35:41;2.90;99.90
20946;DHT22;10632;51.276;7.116;2022-12-07T07:38:08;2.90;99.90
20946;DHT22;10632;51.276;7.116;2022-12-07T07:40:35;2.90;99.90
20946;DHT22;10632;51.276;7.116;2022-12-07T07:43:03;2.80;99.90
20946;DHT22;10632;51.276;7.116;2022-12-07T07:45:30;2.90;99.90
20946;DHT22;10632;51.276;7.116;2022-12-07T07:47:57;2.80;99.90
20946;DHT22;10632;51.276;7.116;2022-12-07T07:50:24;2.90;99.90
20946;DHT22;10632;51.276;7.116;2022-12-07T07:52:51;2.80;99.90
20946;DHT22;10632;51.276;7.116;2022-12-07T07:55:18;2.90;99.90
20946;DHT22;10632;51.276;7.116;2022-12-07T07:57:45;2.90;99.90
20946;DHT22;10632;51.276;7.116;2022-12-07T08:00:15;2.90;99.90
20946;DHT22;10632;51.276;7.116;2022-12-07T08:02:42;2.90;99.90
20946;DHT22;10632;51.276;7.116;2022-12-07T08:05:10;2.90;99.90
20946;DHT22;10632;51.276;7.116;2022-12-07T08:07:37;2.90;99.90
20946;DHT22;10632;51.276;7.116;2022-12-07T08:10:06;2.90;99.90
20946;DHT22;10632;51.276;7.116;2022-12-07T08:12:36;2.90;99.90
20946;DHT22;10632;51.276;7.116;2022-12-07T08:15:26;2.90;99.90
20946;DHT22;10632;51.276;7.116;2022-12-07T08:17:53;2.90;99.90
20946;DHT22;10632;51.276;7.116;2022-12-07T08:20:20;2.90;99.90
20946;DHT22;10632;51.276;7.116;2022-12-07T08:22:47;2.80;99.90
20946;DHT22;10632;51.276;7.116;2022-12-07T08:25:14;2.80;99.90
20946;DHT22;10632;51.276;7.116;2022-12-07T08:27:41;2.80;99.90
20946;DHT22;10632;51.276;7.116;2022-12-07T08:30:08;2.80;99.90
20946;DHT22;10632;51.276;7.116;2022-12-07T08:32:37;2.80;99.90
20946;DHT22;10632;51.276;7.116;2022-12-07T08:35:04;2.80;99.90
20946;DHT22;10632;51.276;7.116;2022-12-07T08:37:31;2.80;99.90
20946;DHT22;10632;51.276;7.116;2022-12-07T08:39:59;2.70;99.90
20946;DHT22;10632;51.276;7.116;2022-12-07T08:42:26;2.80;99.90
20946;DHT22;10632;51.276;7.116;2022-12-07T08:44:55;2.70;99.90
20946;DHT22;10632;51.276;7.116;2022-12-07T08:47:23;2.80;99.90
20946;DHT22;10632;51.276;7.116;2022-12-07T08:49:53;2.80;99.90
20946;DHT22;10632;51.276;7.116;2022-12-07T08:52:21;2.80;99.90
20946;DHT22;10632;51.276;7.116;2022-12-07T08:54:48;2.80;99.90
20946;DHT22;10632;51.276;7.116;2022-12-07T08:57:15;2.80;99.90
20946;DHT22;10632;51.276;7.116;2022-12-07T08:59:42;2.80;99.90
20946;DHT22;10632;51.276;7.116;2022-12-07T09:02:09;2.80;99.90
20946;DHT22;10632;51.276;7.116;2022-12-07T09:04:36;2.80;99.90
20946;DHT22;10632;51.276;7.116;2022-12-07T09:07:04;2.80;99.90
20946;DHT22;10632;51.276;7.116;2022-12-07T09:09:31;2.80;99.90
20946;DHT22;10632;51.276;7.116;2022-12-07T09:11:58;2.80;99.90
20946;DHT22;10632;51.276;7.116;2022-12-07T09:14:25;2.80;99.90
20946;DHT22;10632;51.276;7.116;2022-12-07T09:16:52;2.80;99.90
20946;DHT22;10632;51.276;7.116;2022-12-07T09:19:19;2.80;99.90
20946;DHT22;10632;51.276;7.116;2022-12-07T09:21:46;2.80;99.90
20946;DHT22;10632;51.276;7.116;2022-12-07T09:24:15;2.80;99.90
20946;DHT22;10632;51.276;7.116;2022-12-07T09:26:41;2.90;99.90
20946;DHT22;10632;51.276;7.116;2022-12-07T09:29:09;2.90;99.90
20946;DHT22;10632;51.276;7.116;2022-12-07T09:31:37;2.90;99.90
20946;DHT22;10632;51.276;7.116;2022-12-07T09:34:04;2.80;99.90
20946;DHT22;10632;51.276;7.116;2022-12-07T09:36:31;2.90;99.90
20946;DHT22;10632;51.276;7.116;2022-12-07T09:38:58;2.90;99.90
20946;DHT22;10632;51.276;7.116;2022-12-07T09:41:27;2.90;99.90
20946;DHT22;10632;51.276;7.116;2022-12-07T09:44:02;2.90;99.90
20946;DHT22;10632;51.276;7.116;2022-12-07T09:46:33;2.90;99.90
20946;DHT22;10632;51.276;7.116;2022-12-07T09:49:01;2.90;99.90
20946;DHT22;10632;51.276;7.116;2022-12-07T09:51:29;3.00;99.90
20946;DHT22;10632;51.276;7.116;2022-12-07T09:53:58;2.90;99.90
20946;DHT22;10632;51.276;7.116;2022-12-07T09:56:29;3.00;99.90
20946;DHT22;10632;51.276;7.116;2022-12-07T09:58:59;3.00;99.90
20946;DHT22;10632;51.276;7.116;2022-12-07T10:01:29;3.00;99.90
20946;DHT22;10632;51.276;7.116;2022-12-07T10:04:02;3.00;99.90
20946;DHT22;10632;51.276;7.116;2022-12-07T10:06:33;3.00;99.90
20946;DHT22;10632;51.276;7.116;2022-12-07T10:09:00;3.00;99.90
20946;DHT22;10632;51.276;7.116;2022-12-07T10:11:29;3.00;99.90
20946;DHT22;10632;51.276;7.116;2022-12-07T10:14:11;3.10;99.90
20946;DHT22;10632;51.276;7.116;2022-12-07T10:16:40;3.10;99.90
20946;DHT22;10632;51.276;7.116;2022-12-07T10:19:23;3.00;99.90
20946;DHT22;10632;51.276;7.116;2022-12-07T10:22:10;3.10;99.90
20946;DHT22;10632;51.276;7.116;2022-12-07T10:24:38;3.10;99.90
20946;DHT22;10632;51.276;7.116;2022-12-07T10:27:17;3.20;99.90
20946;DHT22;10632;51.276;7.116;2022-12-07T10:29:48;3.20;99.90
20946;DHT22;10632;51.276;7.116;2022-12-07T10:32:29;3.20;99.90
20946;DHT22;10632;51.276;7.116;2022-12-07T10:35:19;3.20;99.90
20946;DHT22;10632;51.276;7.116;2022-12-07T10:37:47;3.20;99.90
20946;DHT22;10632;51.276;7.116;2022-12-07T10:40:30;3.20;99.90
20946;DHT22;10632;51.276;7.116;2022-12-07T10:43:15;3.30;99.90
20946;DHT22;10632;51.276;7.116;2022-12-07T10:46:21;3.30;99.90
20946;DHT22;10632;51.276;7.116;2022-12-07T10:48:58;3.20;99.90
20946;DHT22;10632;51.276;7.116;2022-12-07T10:51:35;3.20;99.90
20946;DHT22;10632;51.276;7.116;2022-12-07T10:54:10;3.20;99.90
20946;DHT22;10632;51.276;7.116;2022-12-07T10:57:01;3.20;99.90
20946;DHT22;10632;51.276;7.116;2022-12-07T10:59:52;3.20;99.90
20946;DHT22;10632;51.276;7.116;2022-12-07T11:02:29;3.20;99.90
20946;DHT22;10632;51.276;7.116;2022-12-07T11:05:11;3.20;99.90
20946;DHT22;10632;51.276;7.116;2022-12-07T11:07:47;3.30;99.90
20946;DHT22;10632;51.276;7.116;2022-12-07T11:10:21;3.20;99.90
20946;DHT22;10632;51.276;7.116;2022-12-07T11:13:10;3.20;99.90
20946;DHT22;10632;51.276;7.116;2022-12-07T11:15:51;3.30;99.90
20946;DHT22;10632;51.276;7.116;2022-12-07T11:18:25;3.30;99.90
20946;DHT22;10632;51.276;7.116;2022-12-07T11:20:59;3.30;99.90
20946;DHT22;10632;51.276;7.116;2022-12-07T11:23:44;3.30;99.90
20946;DHT22;10632;51.276;7.116;2022-12-07T11:26:19;3.40;99.90
20946;DHT22;10632;51.276;7.116;2022-12-07T11:29:09;3.40;99.90
20946;DHT22;10632;51.276;7.116;2022-12-07T11:31:50;3.40;99.90
20946;DHT22;10632;51.276;7.116;2022-12-07T11:34:31;3.50;99.90
20946;DHT22;10632;51.276;7.116;2022-12-07T11:37:02;3.50;99.90
20946;DHT22;10632;51.276;7.116;2022-12-07T11:39:34;3.50;99.90
20946;DHT22;10632;51.276;7.116;2022-12-07T11:42:08;3.60;99.90
20946;DHT22;10632;51.276;7.116;2022-12-07T11:44:40;3.60;99.90
20946;DHT22;10632;51.276;7.116;2022-12-07T11:47:16;3.60;99.90
20946;DHT22;10632;51.276;7.116;2022-12-07T11:49:48;3.60;99.90
20946;DHT22;10632;51.276;7.116;2022-12-07T11:52:25;3.60;99.90
20946;DHT22;10632;51.276;7.116;2022-12-07T11:54:54;3.70;99.90
20946;DHT22;10632;51.276;7.116;2022-12-07T11:57:28;3.70;99.90
20946;DHT22;10632;51.276;7.116;2022-12-07T12:00:00;3.70;99.90
20946;DHT22;10632;51.276;7.116;2022-12-07T12:02:34;3.70;99.90
20946;DHT22;10632;51.276;7.116;2022-12-07T12:05:12;3.70;99.90
20946;DHT22;10632;51.276;7.116;2022-12-07T12:07:41;3.70;99.90
20946;DHT22;10632;51.276;7.116;2022-12-07T12:10:17;3.70;99.90
20946;DHT22;10632;51.276;7.116;2022-12-07T12:13:15;3.70;99.90
20946;DHT22;10632;51.276;7.116;2022-12-07T12:15:59;3.80;99.90
20946;DHT22;10632;51.276;7.116;2022-12-07T12:18:46;3.80;99.90
20946;DHT22;10632;51.276;7.116;2022-12-07T12:21:17;3.80;99.90
20946;DHT22;10632;51.276;7.116;2022-12-07T12:23:49;3.80;99.90
20946;DHT22;10632;51.276;7.116;2022-12-07T12:26:20;3.90;99.90
20946;DHT22;10632;51.276;7.116;2022-12-07T12:28:54;3.90;99.90
20946;DHT22;10632;51.276;7.116;2022-12-07T12:31:33;3.90;99.90
20946;DHT22;10632;51.276;7.116;2022-12-07T12:34:28;3.90;99.90
20946;DHT22;10632;51.276;7.116;2022-12-07T12:36:51;3.90;99.90
20946;DHT22;10632;51.276;7.116;2022-12-07T12:39:19;3.90;99.90
20946;DHT22;10632;51.276;7.116;2022-12-07T12:42:00;3.80;99.90
20946;DHT22;10632;51.276;7.116;2022-12-07T12:50:33;3.90;99.90
20946;DHT22;10632;51.276;7.116;2022-12-07T12:53:16;3.90;99.90
20946;DHT22;10632;51.276;7.116;2022-12-07T12:58:44;3.90;99.90
20946;DHT22;10632;51.276;7.116;2022-12-07T13:01:45;3.90;99.90
20946;DHT22;10632;51.276;7.116;2022-12-07T13:04:23;3.90;99.90
20946;DHT22;10632;51.276;7.116;2022-12-07T13:06:52;3.90;99.90
20946;DHT22;10632;51.276;7.116;2022-12-07T13:09:22;3.90;99.90
20946;DHT22;10632;51.276;7.116;2022-12-07T13:11:56;3.90;99.90
20946;DHT22;10632;51.276;7.116;2022-12-07T13:14:54;4.00;99.90
20946;DHT22;10632;51.276;7.116;2022-12-07T13:18:00;4.00;99.90
20946;DHT22;10632;51.276;7.116;2022-12-07T13:20:49;4.00;99.90
20946;DHT22;10632;51.276;7.116;2022-12-07T13:23:24;4.10;99.90
20946;DHT22;10632;51.276;7.116;2022-12-07T13:29:09;4.20;99.90
20946;DHT22;10632;51.276;7.116;2022-12-07T13:31:38;4.10;99.90
20946;DHT22;10632;51.276;7.116;2022-12-07T13:34:29;4.10;99.90
20946;DHT22;10632;51.276;7.116;2022-12-07T13:36:57;4.00;99.90
20946;DHT22;10632;51.276;7.116;2022-12-07T13:39:27;4.00;99.90
20946;DHT22;10632;51.276;7.116;2022-12-07T13:41:55;4.00;99.90
20946;DHT22;10632;51.276;7.116;2022-12-07T13:44:24;4.00;99.90
20946;DHT22;10632;51.276;7.116;2022-12-07T13:46:59;3.90;99.90
20946;DHT22;10632;51.276;7.116;2022-12-07T13:49:29;3.90;99.90
20946;DHT22;10632;51.276;7.116;2022-12-07T13:52:13;3.80;99.90
20946;DHT22;10632;51.276;7.116;2022-12-07T13:54:55;3.80;99.90
20946;DHT22;10632;51.276;7.116;2022-12-07T13:57:24;3.70;99.90
20946;DHT22;10632;51.276;7.116;2022-12-07T13:59:53;3.70;99.90
20946;DHT22;10632;51.276;7.116;2022-12-07T14:02:21;3.70;99.90
20946;DHT22;10632;51.276;7.116;2022-12-07T14:04:51;3.70;99.90
20946;DHT22;10632;51.276;7.116;2022-12-07T14:07:33;3.60;99.90
20946;DHT22;10632;51.276;7.116;2022-12-07T14:10:05;3.60;99.90
20946;DHT22;10632;51.276;7.116;2022-12-07T14:12:36;3.60;99.90
20946;DHT22;10632;51.276;7.116;2022-12-07T14:15:04;3.60;99.90
20946;DHT22;10632;51.276;7.116;2022-12-07T14:17:31;3.60;99.90
20946;DHT22;10632;51.276;7.116;2022-12-07T14:19:59;3.60;99.90
20946;DHT22;10632;51.276;7.116;2022-12-07T14:22:32;3.60;99.90
20946;DHT22;10632;51.276;7.116;2022-12-07T14:25:16;3.60;99.90
20946;DHT22;10632;51.276;7.116;2022-12-07T14:27:55;3.70;99.90
20946;DHT22;10632;51.276;7.116;2022-12-07T14:30:25;3.80;99.90
20946;DHT22;10632;51.276;7.116;2022-12-07T14:32:54;3.70;99.90
20946;DHT22;10632;51.276;7.116;2022-12-07T14:35:21;3.70;99.90
20946;DHT22;10632;51.276;7.116;2022-12-07T14:37:49;3.60;99.90
20946;DHT22;10632;51.276;7.116;2022-12-07T14:40:19;3.60;99.90
20946;DHT22;10632;51.276;7.116;2022-12-07T14:42:49;3.60;99.90
20946;DHT22;10632;51.276;7.116;2022-12-07T14:45:18;3.50;99.90
20946;DHT22;10632;51.276;7.116;2022-12-07T14:47:46;3.50;99.90
20946;DHT22;10632;51.276;7.116;2022-12-07T14:50:14;3.50;99.90
20946;DHT22;10632;51.276;7.116;2022-12-07T14:52:43;3.50;99.90
20946;DHT22;10632;51.276;7.116;2022-12-07T14:55:24;3.50;99.90
20946;DHT22;10632;51.276;7.116;2022-12-07T14:57:51;3.50;99.90
20946;DHT22;10632;51.276;7.116;2022-12-07T15:00:20;3.40;99.90
20946;DHT22;10632;51.276;7.116;2022-12-07T15:02:55;3.50;99.90
20946;DHT22;10632;51.276;7.116;2022-12-07T15:05:22;3.50;99.90
20946;DHT22;10632;51.276;7.116;2022-12-07T15:07:50;3.50;99.90
20946;DHT22;10632;51.276;7.116;2022-12-07T15:10:21;3.50;99.90
20946;DHT22;10632;51.276;7.116;2022-12-07T15:12:51;3.50;99.90
20946;DHT22;10632;51.276;7.116;2022-12-07T15:15:18;3.50;99.90
20946;DHT22;10632;51.276;7.116;2022-12-07T15:17:45;3.50;99.90
20946;DHT22;10632;51.276;7.116;2022-12-07T15:20:14;3.40;99.90
20946;DHT22;10632;51.276;7.116;2022-12-07T15:22:42;3.40;99.90
20946;DHT22;10632;51.276;7.116;2022-12-07T15:25:12;3.40;99.90
20946;DHT22;10632;51.276;7.116;2022-12-07T15:27:41;3.40;99.90
20946;DHT22;10632;51.276;7.116;2022-12-07T15:30:17;3.40;99.90
20946;DHT22;10632;51.276;7.116;2022-12-07T15:32:44;3.30;99.90
20946;DHT22;10632;51.276;7.116;2022-12-07T15:35:15;3.30;99.90
20946;DHT22;10632;51.276;7.116;2022-12-07T15:37:44;3.30;99.90
20946;DHT22;10632;51.276;7.116;2022-12-07T15:40:11;3.30;99.90
20946;DHT22;10632;51.276;7.116;2022-12-07T15:42:39;3.30;99.90
20946;DHT22;10632;51.276;7.116;2022-12-07T15:45:08;3.30;99.90
20946;DHT22;10632;51.276;7.116;2022-12-07T15:47:36;3.30;99.90
20946;DHT22;10632;51.276;7.116;2022-12-07T15:50:04;3.30;99.90
20946;DHT22;10632;51.276;7.116;2022-12-07T15:52:31;3.30;99.90
20946;DHT22;10632;51.276;7.116;2022-12-07T15:54:58;3.30;99.90
20946;DHT22;10632;51.276;7.116;2022-12-07T15:57:28;3.30;99.90
20946;DHT22;10632;51.276;7.116;2022-12-07T15:59:55;3.40;99.90
20946;DHT22;10632;51.276;7.116;2022-12-07T16:02:26;3.40;99.90
20946;DHT22;10632;51.276;7.116;2022-12-07T16:04:53;3.40;99.90
20946;DHT22;10632;51.276;7.116;2022-12-07T16:07:20;3.40;99.90
20946;DHT22;10632;51.276;7.116;2022-12-07T16:09:47;3.40;99.90
20946;DHT22;10632;51.276;7.116;2022-12-07T16:12:15;3.40;99.90
20946;DHT22;10632;51.276;7.116;2022-12-07T16:14:43;3.40;99.90
20946;DHT22;10632;51.276;7.116;2022-12-07T16:17:10;3.40;99.90
20946;DHT22;10632;51.276;7.116;2022-12-07T16:19:39;3.40;99.90
20946;DHT22;10632;51.276;7.116;2022-12-07T16:22:06;3.40;99.90